sensor_id;sensor_type;location;lat;lon;timestamp;pressure;altitude;pressure_sealevel;temperature;humidity
28267;BME280;15525;45.568;5.448;2022-08-25T00:01:30;97917.72;;;24.70;45.44
28267;BME280;15525;45.568;5.448;2022-08-25T00:03:57;97917.47;;;24.79;45.12
28267;BME280;15525;45.568;5.448;2022-08-25T00:06:23;97920.09;;;24.34;45.97
28267;BME280;15525;45.568;5.448;2022-08-25T00:08:49;97925.00;;;24.06;46.62
28267;BME280;15525;45.568;5.448;2022-08-25T00:11:20;97925.88;;;24.29;46.21
28267;BME280;15525;45.568;5.448;2022-08-25T00:13:50;97925.00;;;24.25;46.14
28267;BME280;15525;45.568;5.448;2022-08-25T00:16:17;97920.25;;;24.41;45.73
28267;BME280;15525;45.568;5.448;2022-08-25T00:18:45;97929.16;;;24.57;45.59
28267;BME280;15525;45.568;5.448;2022-08-25T00:21:13;97940.53;;;24.59;45.55
28267;BME280;15525;45.568;5.448;2022-08-25T00:23:39;97934.50;;;24.50;45.68
28267;BME280;15525;45.568;5.448;2022-08-25T00:26:05;97919.88;;;24.61;45.36
28267;BME280;15525;45.568;5.448;2022-08-25T00:28:31;97926.47;;;24.79;45.05
28267;BME280;15525;45.568;5.448;2022-08-25T00:30:56;97917.72;;;24.70;45.02
28267;BME280;15525;45.568;5.448;2022-08-25T00:33:23;97915.19;;;24.62;45.25
28267;BME280;15525;45.568;5.448;2022-08-25T00:35:50;97909.88;;;24.50;45.55
28267;BME280;15525;45.568;5.448;2022-08-25T00:38:16;97911.31;;;24.06;46.66
28267;BME280;15525;45.568;5.448;2022-08-25T00:40:42;97901.59;;;24.08;46.56
28267;BME280;15525;45.568;5.448;2022-08-25T00:43:07;97914.41;;;24.23;46.37
28267;BME280;15525;45.568;5.448;2022-08-25T00:45:34;97909.31;;;24.41;45.78
28267;BME280;15525;45.568;5.448;2022-08-25T00:48:00;97913.97;;;24.40;45.78
28267;BME280;15525;45.568;5.448;2022-08-25T00:50:28;97915.50;;;24.38;45.94
28267;BME280;15525;45.568;5.448;2022-08-25T00:52:56;97917.06;;;24.39;45.92
28267;BME280;15525;45.568;5.448;2022-08-25T00:55:28;97914.34;;;24.20;46.33
28267;BME280;15525;45.568;5.448;2022-08-25T00:57:59;97900.66;;;24.39;45.82
28267;BME280;15525;45.568;5.448;2022-08-25T01:00:38;97909.50;;;24.32;46.30
28267;BME280;15525;45.568;5.448;2022-08-25T01:03:05;97903.25;;;24.32;46.01
28267;BME280;15525;45.568;5.448;2022-08-25T01:05:31;97915.28;;;24.08;46.52
28267;BME280;15525;45.568;5.448;2022-08-25T01:07:57;97911.59;;;24.20;46.30
28267;BME280;15525;45.568;5.448;2022-08-25T01:10:24;97903.81;;;24.41;45.94
28267;BME280;15525;45.568;5.448;2022-08-25T01:12:51;97919.84;;;24.42;45.93
28267;BME280;15525;45.568;5.448;2022-08-25T01:15:18;97917.94;;;24.43;46.12
28267;BME280;15525;45.568;5.448;2022-08-25T01:17:54;97923.09;;;24.48;46.01
28267;BME280;15525;45.568;5.448;2022-08-25T01:20:22;97927.88;;;24.51;45.91
28267;BME280;15525;45.568;5.448;2022-08-25T01:22:49;97931.63;;;24.43;45.91
28267;BME280;15525;45.568;5.448;2022-08-25T01:25:31;97934.28;;;24.20;46.63
28267;BME280;15525;45.568;5.448;2022-08-25T01:27:59;97936.66;;;24.03;46.96
28267;BME280;15525;45.568;5.448;2022-08-25T01:30:25;97925.34;;;24.04;47.09
28267;BME280;15525;45.568;5.448;2022-08-25T01:32:51;97935.72;;;23.95;47.23
28267;BME280;15525;45.568;5.448;2022-08-25T01:35:17;97931.91;;;24.00;47.27
28267;BME280;15525;45.568;5.448;2022-08-25T01:37:43;97937.16;;;24.08;46.96
28267;BME280;15525;45.568;5.448;2022-08-25T01:40:09;97918.31;;;24.22;46.52
28267;BME280;15525;45.568;5.448;2022-08-25T01:43:01;97934.22;;;24.36;46.89
28267;BME280;15525;45.568;5.448;2022-08-25T01:45:27;97932.97;;;24.14;46.88
28267;BME280;15525;45.568;5.448;2022-08-25T01:47:53;97931.34;;;24.10;47.00
28267;BME280;15525;45.568;5.448;2022-08-25T01:50:19;97938.69;;;24.06;47.22
28267;BME280;15525;45.568;5.448;2022-08-25T01:52:57;97933.22;;;24.06;47.50
28267;BME280;15525;45.568;5.448;2022-08-25T01:55:23;97934.06;;;24.10;47.08
28267;BME280;15525;45.568;5.448;2022-08-25T01:57:48;97932.03;;;24.07;47.06
28267;BME280;15525;45.568;5.448;2022-08-25T02:00:15;97934.22;;;24.17;46.78
28267;BME280;15525;45.568;5.448;2022-08-25T02:02:42;97934.94;;;24.14;46.96
28267;BME280;15525;45.568;5.448;2022-08-25T02:05:10;97931.84;;;24.15;46.96
28267;BME280;15525;45.568;5.448;2022-08-25T02:07:38;97941.63;;;24.16;47.17
28267;BME280;15525;45.568;5.448;2022-08-25T02:10:05;97941.19;;;24.14;47.12
28267;BME280;15525;45.568;5.448;2022-08-25T02:12:31;97931.03;;;24.15;47.02
28267;BME280;15525;45.568;5.448;2022-08-25T02:14:59;97922.19;;;24.21;47.01
28267;BME280;15525;45.568;5.448;2022-08-25T02:17:26;97918.59;;;24.17;46.91
28267;BME280;15525;45.568;5.448;2022-08-25T02:19:52;97924.06;;;24.17;47.09
28267;BME280;15525;45.568;5.448;2022-08-25T02:22:19;97934.94;;;24.14;47.13
28267;BME280;15525;45.568;5.448;2022-08-25T02:24:45;97925.84;;;23.91;47.72
28267;BME280;15525;45.568;5.448;2022-08-25T02:27:10;97928.59;;;23.91;47.48
28267;BME280;15525;45.568;5.448;2022-08-25T02:29:36;97915.53;;;23.84;47.73
28267;BME280;15525;45.568;5.448;2022-08-25T02:32:02;97915.28;;;23.74;48.04
28267;BME280;15525;45.568;5.448;2022-08-25T02:34:28;97908.53;;;23.68;48.35
28267;BME280;15525;45.568;5.448;2022-08-25T02:36:53;97912.28;;;23.79;47.88
28267;BME280;15525;45.568;5.448;2022-08-25T02:39:18;97920.09;;;23.96;47.72
28267;BME280;15525;45.568;5.448;2022-08-25T02:41:44;97907.50;;;23.76;48.07
28267;BME280;15525;45.568;5.448;2022-08-25T02:44:09;97904.13;;;23.82;48.05
28267;BME280;15525;45.568;5.448;2022-08-25T02:46:36;97903.50;;;23.89;47.94
28267;BME280;15525;45.568;5.448;2022-08-25T02:49:01;97908.88;;;24.01;47.61
28267;BME280;15525;45.568;5.448;2022-08-25T02:51:27;97916.72;;;24.02;47.54
28267;BME280;15525;45.568;5.448;2022-08-25T02:53:57;97906.59;;;23.87;48.01
28267;BME280;15525;45.568;5.448;2022-08-25T02:56:24;97912.78;;;23.84;48.18
28267;BME280;15525;45.568;5.448;2022-08-25T02:58:49;97902.28;;;23.86;47.88
28267;BME280;15525;45.568;5.448;2022-08-25T03:01:15;97903.78;;;23.84;48.07
28267;BME280;15525;45.568;5.448;2022-08-25T03:03:42;97905.00;;;23.86;48.17
28267;BME280;15525;45.568;5.448;2022-08-25T03:06:11;97900.00;;;23.88;48.05
28267;BME280;15525;45.568;5.448;2022-08-25T03:08:37;97902.91;;;23.80;48.26
28267;BME280;15525;45.568;5.448;2022-08-25T03:11:03;97918.25;;;23.65;48.61
28267;BME280;15525;45.568;5.448;2022-08-25T03:13:30;97911.78;;;23.58;48.80
28267;BME280;15525;45.568;5.448;2022-08-25T03:15:58;97902.75;;;23.54;48.98
28267;BME280;15525;45.568;5.448;2022-08-25T03:18:23;97909.44;;;23.56;48.90
28267;BME280;15525;45.568;5.448;2022-08-25T03:20:48;97904.03;;;23.60;48.84
28267;BME280;15525;45.568;5.448;2022-08-25T03:23:14;97904.91;;;23.64;48.75
28267;BME280;15525;45.568;5.448;2022-08-25T03:25:39;97901.44;;;23.67;48.64
28267;BME280;15525;45.568;5.448;2022-08-25T03:28:24;97901.66;;;23.93;48.82
28267;BME280;15525;45.568;5.448;2022-08-25T03:30:49;97904.69;;;23.53;48.42
28267;BME280;15525;45.568;5.448;2022-08-25T03:33:14;97911.56;;;23.47;48.63
28267;BME280;15525;45.568;5.448;2022-08-25T03:35:40;97912.91;;;23.38;49.14
28267;BME280;15525;45.568;5.448;2022-08-25T03:38:05;97908.94;;;23.35;49.34
28267;BME280;15525;45.568;5.448;2022-08-25T03:40:31;97899.19;;;23.19;49.37
28267;BME280;15525;45.568;5.448;2022-08-25T03:42:57;97915.63;;;23.38;49.17
28267;BME280;15525;45.568;5.448;2022-08-25T03:45:23;97918.69;;;23.52;48.80
28267;BME280;15525;45.568;5.448;2022-08-25T03:47:50;97918.41;;;23.57;48.76
28267;BME280;15525;45.568;5.448;2022-08-25T03:50:18;97914.50;;;23.23;49.47
28267;BME280;15525;45.568;5.448;2022-08-25T03:52:44;97917.47;;;23.03;50.26
28267;BME280;15525;45.568;5.448;2022-08-25T03:55:11;97911.38;;;23.09;50.17
28267;BME280;15525;45.568;5.448;2022-08-25T03:57:37;97912.66;;;23.27;49.75
28267;BME280;15525;45.568;5.448;2022-08-25T04:00:08;97899.94;;;23.35;49.43
28267;BME280;15525;45.568;5.448;2022-08-25T04:02:33;97900.03;;;23.38;49.17
28267;BME280;15525;45.568;5.448;2022-08-25T04:04:59;97899.84;;;23.47;48.98
28267;BME280;15525;45.568;5.448;2022-08-25T04:07:25;97906.88;;;23.48;48.93
28267;BME280;15525;45.568;5.448;2022-08-25T04:09:52;97899.69;;;23.40;48.87
28267;BME280;15525;45.568;5.448;2022-08-25T04:12:18;97899.22;;;23.38;49.03
28267;BME280;15525;45.568;5.448;2022-08-25T04:14:43;97891.75;;;23.35;49.28
28267;BME280;15525;45.568;5.448;2022-08-25T04:17:09;97898.81;;;23.36;49.11
28267;BME280;15525;45.568;5.448;2022-08-25T04:19:34;97888.16;;;23.31;49.35
28267;BME280;15525;45.568;5.448;2022-08-25T04:22:00;97896.53;;;23.22;49.51
28267;BME280;15525;45.568;5.448;2022-08-25T04:24:25;97894.38;;;23.16;49.75
28267;BME280;15525;45.568;5.448;2022-08-25T04:26:51;97900.19;;;23.14;49.83
28267;BME280;15525;45.568;5.448;2022-08-25T04:29:19;97901.91;;;23.19;49.67
28267;BME280;15525;45.568;5.448;2022-08-25T04:31:47;97891.53;;;23.24;49.44
28267;BME280;15525;45.568;5.448;2022-08-25T04:34:18;97908.69;;;23.25;49.42
28267;BME280;15525;45.568;5.448;2022-08-25T04:36:44;97894.94;;;23.21;49.56
28267;BME280;15525;45.568;5.448;2022-08-25T04:39:10;97893.72;;;23.19;49.73
28267;BME280;15525;45.568;5.448;2022-08-25T04:41:35;97890.28;;;23.22;49.84
28267;BME280;15525;45.568;5.448;2022-08-25T04:44:01;97894.59;;;23.23;49.60
28267;BME280;15525;45.568;5.448;2022-08-25T04:46:30;97906.06;;;23.28;49.60
28267;BME280;15525;45.568;5.448;2022-08-25T04:48:57;97901.44;;;23.32;49.51
28267;BME280;15525;45.568;5.448;2022-08-25T04:51:26;97896.84;;;23.36;49.51
28267;BME280;15525;45.568;5.448;2022-08-25T04:53:53;97891.38;;;23.36;49.44
28267;BME280;15525;45.568;5.448;2022-08-25T04:56:21;97889.88;;;23.39;49.29
28267;BME280;15525;45.568;5.448;2022-08-25T04:58:50;97900.31;;;23.33;49.44
28267;BME280;15525;45.568;5.448;2022-08-25T05:01:18;97904.19;;;23.32;49.53
28267;BME280;15525;45.568;5.448;2022-08-25T05:03:46;97889.75;;;23.32;49.60
28267;BME280;15525;45.568;5.448;2022-08-25T05:06:11;97900.53;;;23.44;49.45
28267;BME280;15525;45.568;5.448;2022-08-25T05:08:37;97886.28;;;23.35;49.58
28267;BME280;15525;45.568;5.448;2022-08-25T05:11:06;97893.16;;;23.29;49.89
28267;BME280;15525;45.568;5.448;2022-08-25T05:13:33;97898.34;;;23.34;49.97
28267;BME280;15525;45.568;5.448;2022-08-25T05:16:00;97898.72;;;23.32;49.83
28267;BME280;15525;45.568;5.448;2022-08-25T05:18:28;97892.91;;;23.34;49.94
28267;BME280;15525;45.568;5.448;2022-08-25T05:20:55;97893.69;;;23.34;50.06
28267;BME280;15525;45.568;5.448;2022-08-25T05:23:23;97896.50;;;23.38;49.89
28267;BME280;15525;45.568;5.448;2022-08-25T05:25:50;97890.44;;;23.29;50.19
28267;BME280;15525;45.568;5.448;2022-08-25T05:28:17;97894.94;;;23.06;50.66
28267;BME280;15525;45.568;5.448;2022-08-25T05:30:42;97894.66;;;23.11;50.93
28267;BME280;15525;45.568;5.448;2022-08-25T05:33:11;97898.09;;;23.23;50.85
28267;BME280;15525;45.568;5.448;2022-08-25T05:35:37;97903.13;;;23.37;50.48
28267;BME280;15525;45.568;5.448;2022-08-25T05:38:03;97900.19;;;23.45;50.39
28267;BME280;15525;45.568;5.448;2022-08-25T05:40:29;97888.91;;;23.47;50.30
28267;BME280;15525;45.568;5.448;2022-08-25T05:42:55;97892.41;;;23.63;49.81
28267;BME280;15525;45.568;5.448;2022-08-25T05:45:21;97899.59;;;23.71;49.54
28267;BME280;15525;45.568;5.448;2022-08-25T05:47:46;97903.66;;;23.77;49.51
28267;BME280;15525;45.568;5.448;2022-08-25T05:50:13;97904.53;;;23.81;49.31
28267;BME280;15525;45.568;5.448;2022-08-25T05:52:38;97901.91;;;23.88;49.20
28267;BME280;15525;45.568;5.448;2022-08-25T05:55:04;97902.97;;;23.99;48.91
28267;BME280;15525;45.568;5.448;2022-08-25T05:57:31;97906.66;;;24.06;48.95
28267;BME280;15525;45.568;5.448;2022-08-25T05:59:56;97908.28;;;24.11;48.77
28267;BME280;15525;45.568;5.448;2022-08-25T06:02:22;97898.78;;;24.24;48.41
28267;BME280;15525;45.568;5.448;2022-08-25T06:05:21;97892.00;;;24.37;48.52
28267;BME280;15525;45.568;5.448;2022-08-25T06:07:50;97886.09;;;24.35;48.65
28267;BME280;15525;45.568;5.448;2022-08-25T06:10:16;97886.75;;;24.47;48.52
28267;BME280;15525;45.568;5.448;2022-08-25T06:12:43;97891.34;;;24.62;48.42
28267;BME280;15525;45.568;5.448;2022-08-25T06:15:11;97892.25;;;24.70;48.55
28267;BME280;15525;45.568;5.448;2022-08-25T06:17:36;97880.94;;;24.71;48.59
28267;BME280;15525;45.568;5.448;2022-08-25T06:20:08;97889.47;;;24.89;48.31
28267;BME280;15525;45.568;5.448;2022-08-25T06:22:34;97890.44;;;25.00;47.90
28267;BME280;15525;45.568;5.448;2022-08-25T06:25:02;97886.72;;;25.11;47.88
28267;BME280;15525;45.568;5.448;2022-08-25T06:27:28;97890.47;;;25.26;47.66
28267;BME280;15525;45.568;5.448;2022-08-25T06:29:53;97890.72;;;25.40;47.48
28267;BME280;15525;45.568;5.448;2022-08-25T06:32:18;97881.84;;;25.50;47.16
28267;BME280;15525;45.568;5.448;2022-08-25T06:34:44;97880.09;;;25.64;47.05
28267;BME280;15525;45.568;5.448;2022-08-25T06:37:09;97890.06;;;25.76;46.77
28267;BME280;15525;45.568;5.448;2022-08-25T06:39:34;97887.09;;;25.88;46.24
28267;BME280;15525;45.568;5.448;2022-08-25T06:42:00;97884.97;;;26.04;46.19
28267;BME280;15525;45.568;5.448;2022-08-25T06:44:27;97884.00;;;26.19;45.53
28267;BME280;15525;45.568;5.448;2022-08-25T06:46:53;97887.59;;;26.26;45.57
28267;BME280;15525;45.568;5.448;2022-08-25T06:49:19;97891.34;;;26.44;45.39
28267;BME280;15525;45.568;5.448;2022-08-25T06:51:44;97886.41;;;26.60;44.82
28267;BME280;15525;45.568;5.448;2022-08-25T06:54:10;97883.44;;;26.76;44.71
28267;BME280;15525;45.568;5.448;2022-08-25T06:56:38;97876.50;;;26.89;44.40
28267;BME280;15525;45.568;5.448;2022-08-25T06:59:04;97873.13;;;27.06;44.23
28267;BME280;15525;45.568;5.448;2022-08-25T07:01:30;97877.94;;;27.19;44.07
28267;BME280;15525;45.568;5.448;2022-08-25T07:03:58;97881.19;;;27.32;43.63
28267;BME280;15525;45.568;5.448;2022-08-25T07:06:28;97893.91;;;27.54;43.39
28267;BME280;15525;45.568;5.448;2022-08-25T07:08:55;97892.44;;;27.70;43.05
28267;BME280;15525;45.568;5.448;2022-08-25T07:11:21;97895.28;;;27.84;42.77
28267;BME280;15525;45.568;5.448;2022-08-25T07:13:48;97894.94;;;27.89;42.61
28267;BME280;15525;45.568;5.448;2022-08-25T07:16:16;97888.72;;;28.03;42.25
28267;BME280;15525;45.568;5.448;2022-08-25T07:18:43;97890.34;;;28.18;42.06
28267;BME280;15525;45.568;5.448;2022-08-25T07:21:09;97892.84;;;28.48;41.65
28267;BME280;15525;45.568;5.448;2022-08-25T07:23:35;97896.41;;;28.55;41.31
28267;BME280;15525;45.568;5.448;2022-08-25T07:26:15;97880.31;;;28.71;40.59
28267;BME280;15525;45.568;5.448;2022-08-25T07:28:41;97894.47;;;28.87;40.73
28267;BME280;15525;45.568;5.448;2022-08-25T07:31:07;97880.72;;;28.94;40.63
28267;BME280;15525;45.568;5.448;2022-08-25T07:33:32;97890.22;;;29.07;40.46
28267;BME280;15525;45.568;5.448;2022-08-25T07:35:58;97894.13;;;29.17;40.37
28267;BME280;15525;45.568;5.448;2022-08-25T07:38:24;97888.22;;;29.39;39.97
28267;BME280;15525;45.568;5.448;2022-08-25T07:40:49;97883.09;;;29.62;39.77
28267;BME280;15525;45.568;5.448;2022-08-25T07:43:22;97885.44;;;29.67;39.66
28267;BME280;15525;45.568;5.448;2022-08-25T07:45:47;97884.59;;;29.84;39.31
28267;BME280;15525;45.568;5.448;2022-08-25T07:48:14;97882.25;;;29.86;39.15
28267;BME280;15525;45.568;5.448;2022-08-25T07:50:43;97892.06;;;29.98;38.70
28267;BME280;15525;45.568;5.448;2022-08-25T07:53:10;97888.88;;;30.03;38.63
28267;BME280;15525;45.568;5.448;2022-08-25T07:55:36;97890.81;;;30.16;38.62
28267;BME280;15525;45.568;5.448;2022-08-25T07:58:04;97898.72;;;30.21;38.63
28267;BME280;15525;45.568;5.448;2022-08-25T08:00:30;97886.00;;;30.34;38.47
28267;BME280;15525;45.568;5.448;2022-08-25T08:03:01;97886.31;;;30.54;38.40
28267;BME280;15525;45.568;5.448;2022-08-25T08:05:27;97888.16;;;30.81;37.86
28267;BME280;15525;45.568;5.448;2022-08-25T08:07:53;97876.66;;;30.86;37.80
28267;BME280;15525;45.568;5.448;2022-08-25T08:10:19;97876.88;;;31.09;37.52
28267;BME280;15525;45.568;5.448;2022-08-25T08:12:45;97884.78;;;31.07;37.41
28267;BME280;15525;45.568;5.448;2022-08-25T08:15:11;97888.63;;;31.20;37.12
28267;BME280;15525;45.568;5.448;2022-08-25T08:17:37;97895.63;;;31.35;37.06
28267;BME280;15525;45.568;5.448;2022-08-25T08:20:04;97890.75;;;31.50;36.73
28267;BME280;15525;45.568;5.448;2022-08-25T08:22:33;97892.94;;;31.28;36.92
28267;BME280;15525;45.568;5.448;2022-08-25T08:25:00;97887.19;;;31.53;36.74
28267;BME280;15525;45.568;5.448;2022-08-25T08:27:25;97890.59;;;31.67;36.47
28267;BME280;15525;45.568;5.448;2022-08-25T08:29:51;97881.56;;;31.63;36.16
28267;BME280;15525;45.568;5.448;2022-08-25T08:32:18;97875.63;;;31.61;36.43
28267;BME280;15525;45.568;5.448;2022-08-25T08:34:44;97874.75;;;31.68;36.27
28267;BME280;15525;45.568;5.448;2022-08-25T08:37:11;97885.44;;;32.06;35.58
28267;BME280;15525;45.568;5.448;2022-08-25T08:39:37;97879.72;;;32.20;35.46
28267;BME280;15525;45.568;5.448;2022-08-25T08:53:08;97882.63;;;32.70;34.20
28267;BME280;15525;45.568;5.448;2022-08-25T08:55:39;97874.28;;;32.73;33.84
28267;BME280;15525;45.568;5.448;2022-08-25T08:58:15;97875.03;;;33.04;33.38
28267;BME280;15525;45.568;5.448;2022-08-25T09:00:46;97873.13;;;32.97;33.72
28267;BME280;15525;45.568;5.448;2022-08-25T09:03:28;97870.25;;;33.31;33.92
28267;BME280;15525;45.568;5.448;2022-08-25T09:06:00;97874.06;;;33.83;33.13
28267;BME280;15525;45.568;5.448;2022-08-25T09:08:26;97866.69;;;33.73;33.25
28267;BME280;15525;45.568;5.448;2022-08-25T09:13:35;97870.13;;;33.80;32.93
28267;BME280;15525;45.568;5.448;2022-08-25T09:19:09;97873.00;;;35.06;31.81
28267;BME280;15525;45.568;5.448;2022-08-25T09:22:03;97871.94;;;35.16;31.05
28267;BME280;15525;45.568;5.448;2022-08-25T09:27:10;97860.22;;;35.41;31.04
28267;BME280;15525;45.568;5.448;2022-08-25T09:30:07;97886.47;;;35.24;30.06
28267;BME280;15525;45.568;5.448;2022-08-25T09:32:38;97870.66;;;35.37;30.34
28267;BME280;15525;45.568;5.448;2022-08-25T09:35:05;97885.88;;;35.33;29.66
28267;BME280;15525;45.568;5.448;2022-08-25T09:37:32;97881.09;;;35.33;28.62
28267;BME280;15525;45.568;5.448;2022-08-25T09:39:57;97873.81;;;35.68;28.31
28267;BME280;15525;45.568;5.448;2022-08-25T09:42:49;97873.91;;;35.80;26.98
28267;BME280;15525;45.568;5.448;2022-08-25T09:45:15;97864.66;;;35.67;27.99
28267;BME280;15525;45.568;5.448;2022-08-25T09:47:43;97858.41;;;35.79;27.59
28267;BME280;15525;45.568;5.448;2022-08-25T09:50:15;97867.09;;;36.10;27.38
28267;BME280;15525;45.568;5.448;2022-08-25T09:52:42;97862.88;;;36.46;27.09
28267;BME280;15525;45.568;5.448;2022-08-25T09:57:51;97860.69;;;36.25;26.38
28267;BME280;15525;45.568;5.448;2022-08-25T10:08:30;97849.22;;;35.95;26.92
28267;BME280;15525;45.568;5.448;2022-08-25T10:10:58;97841.97;;;35.97;27.07
28267;BME280;15525;45.568;5.448;2022-08-25T10:13:45;97843.41;;;36.30;26.88
28267;BME280;15525;45.568;5.448;2022-08-25T10:16:19;97841.41;;;36.02;27.45
28267;BME280;15525;45.568;5.448;2022-08-25T10:21:24;97831.75;;;36.85;27.06
28267;BME280;15525;45.568;5.448;2022-08-25T10:23:51;97831.06;;;37.53;26.43
28267;BME280;15525;45.568;5.448;2022-08-25T10:29:23;97823.59;;;37.50;25.26
28267;BME280;15525;45.568;5.448;2022-08-25T10:31:55;97822.91;;;36.62;25.81
28267;BME280;15525;45.568;5.448;2022-08-25T10:42:09;97816.03;;;37.38;24.08
28267;BME280;15525;45.568;5.448;2022-08-25T10:50:20;97805.97;;;36.69;24.75
28267;BME280;15525;45.568;5.448;2022-08-25T11:01:09;97802.38;;;36.93;24.03
28267;BME280;15525;45.568;5.448;2022-08-25T11:03:49;97813.38;;;37.09;23.08
28267;BME280;15525;45.568;5.448;2022-08-25T11:06:25;97807.47;;;37.07;23.79
28267;BME280;15525;45.568;5.448;2022-08-25T11:08:56;97803.44;;;37.21;24.61
28267;BME280;15525;45.568;5.448;2022-08-25T11:16:37;97799.34;;;37.47;24.03
28267;BME280;15525;45.568;5.448;2022-08-25T11:21:56;97795.53;;;37.96;23.51
28267;BME280;15525;45.568;5.448;2022-08-25T11:26:56;97791.78;;;38.12;24.02
28267;BME280;15525;45.568;5.448;2022-08-25T11:29:24;97788.91;;;38.24;24.21
28267;BME280;15525;45.568;5.448;2022-08-25T11:31:52;97786.31;;;38.08;24.13
28267;BME280;15525;45.568;5.448;2022-08-25T11:34:18;97786.66;;;38.41;23.53
28267;BME280;15525;45.568;5.448;2022-08-25T11:36:57;97777.47;;;38.71;23.27
28267;BME280;15525;45.568;5.448;2022-08-25T11:39:30;97788.31;;;38.60;22.92
28267;BME280;15525;45.568;5.448;2022-08-25T11:42:08;97775.25;;;38.57;22.63
28267;BME280;15525;45.568;5.448;2022-08-25T11:47:34;97785.78;;;38.01;23.33
28267;BME280;15525;45.568;5.448;2022-08-25T11:50:06;97781.00;;;38.53;22.55
28267;BME280;15525;45.568;5.448;2022-08-25T11:57:52;97784.56;;;38.54;22.68
28267;BME280;15525;45.568;5.448;2022-08-25T12:00:40;97771.59;;;38.87;22.88
28267;BME280;15525;45.568;5.448;2022-08-25T12:11:52;97761.84;;;39.00;23.22
28267;BME280;15525;45.568;5.448;2022-08-25T12:32:26;97733.78;;;40.17;21.96
28267;BME280;15525;45.568;5.448;2022-08-25T12:38:15;97745.78;;;40.18;21.68
28267;BME280;15525;45.568;5.448;2022-08-25T12:43:30;97741.44;;;40.58;21.86
28267;BME280;15525;45.568;5.448;2022-08-25T12:52:05;97737.94;;;40.31;21.80
28267;BME280;15525;45.568;5.448;2022-08-25T12:56:46;97733.72;;;40.35;21.46
28267;BME280;15525;45.568;5.448;2022-08-25T12:59:20;97724.59;;;40.17;21.49
28267;BME280;15525;45.568;5.448;2022-08-25T13:10:30;97717.00;;;40.41;20.89
28267;BME280;15525;45.568;5.448;2022-08-25T13:15:40;97705.38;;;40.15;21.49
28267;BME280;15525;45.568;5.448;2022-08-25T13:18:28;97692.22;;;41.33;20.79
28267;BME280;15525;45.568;5.448;2022-08-25T13:21:18;97690.09;;;42.45;20.69
28267;BME280;15525;45.568;5.448;2022-08-25T13:23:47;97691.44;;;42.84;20.30
28267;BME280;15525;45.568;5.448;2022-08-25T13:26:23;97687.13;;;42.54;19.73
28267;BME280;15525;45.568;5.448;2022-08-25T13:28:54;97687.97;;;42.40;19.88
28267;BME280;15525;45.568;5.448;2022-08-25T13:31:22;97688.88;;;42.17;19.89
28267;BME280;15525;45.568;5.448;2022-08-25T13:33:55;97684.69;;;41.54;20.66
28267;BME280;15525;45.568;5.448;2022-08-25T13:36:23;97683.34;;;41.50;20.29
28267;BME280;15525;45.568;5.448;2022-08-25T13:39:20;97688.91;;;40.73;20.39
28267;BME280;15525;45.568;5.448;2022-08-25T13:41:48;97680.53;;;40.64;21.10
28267;BME280;15525;45.568;5.448;2022-08-25T13:44:15;97675.97;;;41.14;21.03
28267;BME280;15525;45.568;5.448;2022-08-25T13:46:41;97680.94;;;41.57;20.01
28267;BME280;15525;45.568;5.448;2022-08-25T13:49:08;97685.13;;;41.23;20.02
28267;BME280;15525;45.568;5.448;2022-08-25T13:51:33;97678.78;;;41.14;20.38
28267;BME280;15525;45.568;5.448;2022-08-25T13:54:04;97678.94;;;41.34;19.79
28267;BME280;15525;45.568;5.448;2022-08-25T13:56:39;97672.66;;;41.39;20.28
28267;BME280;15525;45.568;5.448;2022-08-25T13:59:19;97679.03;;;42.41;20.00
28267;BME280;15525;45.568;5.448;2022-08-25T14:01:47;97680.88;;;42.44;19.57
28267;BME280;15525;45.568;5.448;2022-08-25T14:04:45;97671.09;;;41.38;19.78
28267;BME280;15525;45.568;5.448;2022-08-25T14:09:49;97676.94;;;41.49;19.92
28267;BME280;15525;45.568;5.448;2022-08-25T14:12:35;97678.28;;;42.12;19.66
28267;BME280;15525;45.568;5.448;2022-08-25T14:18:14;97664.03;;;42.84;19.29
28267;BME280;15525;45.568;5.448;2022-08-25T14:20:46;97662.28;;;43.07;19.54
28267;BME280;15525;45.568;5.448;2022-08-25T14:23:18;97669.66;;;43.24;18.89
28267;BME280;15525;45.568;5.448;2022-08-25T14:25:47;97673.25;;;42.85;18.92
28267;BME280;15525;45.568;5.448;2022-08-25T14:28:17;97665.00;;;42.27;19.36
28267;BME280;15525;45.568;5.448;2022-08-25T14:30:52;97655.59;;;41.72;20.33
28267;BME280;15525;45.568;5.448;2022-08-25T14:33:21;97662.56;;;42.34;19.46
28267;BME280;15525;45.568;5.448;2022-08-25T14:35:50;97655.03;;;43.00;19.59
28267;BME280;15525;45.568;5.448;2022-08-25T14:38:17;97655.69;;;43.35;19.09
28267;BME280;15525;45.568;5.448;2022-08-25T14:40:44;97651.94;;;43.44;18.53
28267;BME280;15525;45.568;5.448;2022-08-25T14:43:10;97651.66;;;43.67;18.09
28267;BME280;15525;45.568;5.448;2022-08-25T14:45:39;97653.06;;;42.17;18.39
28267;BME280;15525;45.568;5.448;2022-08-25T14:48:07;97637.31;;;41.09;19.37
28267;BME280;15525;45.568;5.448;2022-08-25T14:50:33;97648.94;;;41.55;19.37
28267;BME280;15525;45.568;5.448;2022-08-25T14:53:01;97642.72;;;42.43;18.46
28267;BME280;15525;45.568;5.448;2022-08-25T14:55:26;97645.63;;;42.00;18.30
28267;BME280;15525;45.568;5.448;2022-08-25T14:57:52;97638.06;;;42.40;18.25
28267;BME280;15525;45.568;5.448;2022-08-25T15:00:17;97637.56;;;41.64;18.78
28267;BME280;15525;45.568;5.448;2022-08-25T15:02:45;97634.94;;;40.93;19.66
28267;BME280;15525;45.568;5.448;2022-08-25T15:05:15;97630.44;;;41.10;18.81
28267;BME280;15525;45.568;5.448;2022-08-25T15:07:41;97630.59;;;41.74;18.72
28267;BME280;15525;45.568;5.448;2022-08-25T15:10:25;97632.88;;;42.53;17.85
28267;BME280;15525;45.568;5.448;2022-08-25T15:12:51;97630.75;;;42.88;17.71
28267;BME280;15525;45.568;5.448;2022-08-25T15:15:17;97628.56;;;43.38;17.47
28267;BME280;15525;45.568;5.448;2022-08-25T15:17:43;97627.75;;;43.37;17.40
28267;BME280;15525;45.568;5.448;2022-08-25T15:20:09;97623.94;;;43.66;17.29
28267;BME280;15525;45.568;5.448;2022-08-25T15:22:35;97618.41;;;43.51;17.32